Time;durP1;ratioP1;P1;durP2;ratioP2;P2;SDS_P1;SDS_P2;PMS_P1;PMS_P2;Temp;Humidity;BMP_temperature;BMP_pressure;BME280_temperature;BME280_humidity;BME280_pressure;Samples;Min_cycle;Max_cycle;Signal;HPM_P1;HPM_P2
2023/06/27 00:00:13;;;;;;;4.10;1.97;;;19.00;60.20;;;;;;5031489;28;20520;-70
2023/06/27 00:02:46;;;;;;;2.90;2.23;;;19.00;60.20;;;;;;5030355;28;20468;-70
2023/06/27 00:05:15;;;;;;;5.40;1.97;;;19.00;60.30;;;;;;5031232;28;20966;-69
2023/06/27 00:07:43;;;;;;;3.70;2.30;;;19.00;60.40;;;;;;5031506;28;21214;-70
2023/06/27 00:10:11;;;;;;;8.87;2.40;;;18.90;60.50;;;;;;5031336;28;21151;-69
2023/06/27 00:12:39;;;;;;;3.93;2.10;;;18.90;60.70;;;;;;5029915;28;20998;-70
2023/06/27 00:15:08;;;;;;;4.40;2.07;;;19.00;61.00;;;;;;5031299;28;20448;-70
2023/06/27 00:17:40;;;;;;;3.80;2.40;;;19.00;60.80;;;;;;5031215;28;21017;-70
2023/06/27 00:20:11;;;;;;;3.10;2.23;;;19.00;61.90;;;;;;5032729;28;20504;-69
2023/06/27 00:22:40;;;;;;;4.70;2.53;;;18.90;61.40;;;;;;5029379;28;21098;-69
2023/06/27 00:25:10;;;;;;;5.03;2.50;;;18.90;62.00;;;;;;5031100;28;20448;-69
2023/06/27 00:27:38;;;;;;;5.03;2.17;;;18.80;61.90;;;;;;5030569;28;20503;-69
2023/06/27 00:30:08;;;;;;;7.83;2.40;;;18.80;62.80;;;;;;5030693;28;20931;-69
2023/06/27 00:32:36;;;;;;;5.50;2.43;;;18.80;62.40;;;;;;5029658;28;20465;-69
2023/06/27 00:35:04;;;;;;;4.53;2.23;;;18.70;62.30;;;;;;5030666;28;20846;-72
2023/06/27 00:37:34;;;;;;;4.83;2.23;;;18.80;62.90;;;;;;5030825;28;20503;-69
2023/06/27 00:40:03;;;;;;;5.37;2.37;;;18.80;62.40;;;;;;5030676;28;20892;-69
2023/06/27 00:42:31;;;;;;;2.83;1.87;;;18.90;63.10;;;;;;5029586;28;20468;-69
2023/06/27 00:44:59;;;;;;;3.47;1.83;;;18.80;64.40;;;;;;5030699;28;20511;-69
2023/06/27 00:47:27;;;;;;;3.33;2.13;;;18.80;63.50;;;;;;5029835;28;20451;-69
2023/06/27 00:49:55;;;;;;;4.63;2.50;;;18.80;64.00;;;;;;5030949;28;20445;-69
2023/06/27 00:52:23;;;;;;;4.07;2.23;;;18.80;63.80;;;;;;5029359;28;21210;-70
2023/06/27 00:54:54;;;;;;;5.07;2.20;;;18.80;64.10;;;;;;5030309;28;20457;-69
2023/06/27 00:57:22;;;;;;;9.10;2.63;;;18.80;63.70;;;;;;5030499;28;20990;-69
2023/06/27 00:59:51;;;;;;;3.77;2.60;;;18.90;63.90;;;;;;5030307;28;20451;-69
2023/06/27 01:02:23;;;;;;;4.63;2.53;;;18.90;65.00;;;;;;5029926;28;20489;-69
2023/06/27 01:04:52;;;;;;;3.30;2.23;;;18.80;64.30;;;;;;5030364;28;20478;-69
2023/06/27 01:07:26;;;;;;;6.17;1.93;;;18.80;64.00;;;;;;5030145;28;20526;-69
2023/06/27 01:10:03;;;;;;;5.30;2.33;;;18.80;63.80;;;;;;5030366;28;20440;-69
2023/06/27 01:12:39;;;;;;;4.90;2.17;;;18.80;64.40;;;;;;5028884;28;20453;-70
2023/06/27 01:15:09;;;;;;;3.97;1.97;;;18.80;63.90;;;;;;5030295;28;20532;-69
2023/06/27 01:17:38;;;;;;;5.17;2.70;;;18.70;64.20;;;;;;5029755;28;20494;-70
2023/06/27 01:20:09;;;;;;;4.03;2.50;;;18.70;64.30;;;;;;5030372;28;20437;-70
2023/06/27 01:22:43;;;;;;;2.90;2.23;;;18.80;64.20;;;;;;5028838;28;20460;-69
2023/06/27 01:25:13;;;;;;;6.10;2.40;;;18.80;64.50;;;;;;5030415;28;20465;-69
2023/06/27 01:27:41;;;;;;;5.00;2.10;;;18.80;64.30;;;;;;5030184;28;20438;-69
2023/06/27 01:30:10;;;;;;;5.57;2.70;;;18.80;64.40;;;;;;5030057;28;20441;-69
2023/06/27 01:32:46;;;;;;;2.80;2.30;;;18.70;64.70;;;;;;5029139;28;20457;-69
2023/06/27 01:35:20;;;;;;;5.33;2.13;;;18.70;65.00;;;;;;5030009;28;20448;-69
2023/06/27 01:37:54;;;;;;;5.00;2.20;;;18.70;65.00;;;;;;5029924;28;20444;-69
2023/06/27 01:40:28;;;;;;;5.23;2.17;;;18.80;65.40;;;;;;5029352;28;20487;-69
2023/06/27 01:43:04;;;;;;;4.00;2.00;;;18.70;64.80;;;;;;5028845;28;20466;-69
2023/06/27 01:45:32;;;;;;;3.70;1.87;;;18.60;65.10;;;;;;5029920;28;20466;-69
2023/06/27 01:48:02;;;;;;;4.50;2.00;;;18.60;64.50;;;;;;5029493;28;20445;-69
2023/06/27 01:50:33;;;;;;;4.07;2.50;;;18.50;64.40;;;;;;5029922;28;20977;-69
2023/06/27 01:53:01;;;;;;;6.50;2.80;;;18.40;64.30;;;;;;5028075;28;20476;-69
2023/06/27 01:55:32;;;;;;;6.67;2.00;;;18.40;65.20;;;;;;5029646;28;21065;-69
2023/06/27 01:58:01;;;;;;;6.10;2.30;;;18.30;65.30;;;;;;5029593;28;20449;-69
2023/06/27 02:00:29;;;;;;;3.23;2.30;;;18.30;65.90;;;;;;5033368;28;20507;-69
2023/06/27 02:02:57;;;;;;;2.77;2.10;;;18.10;66.10;;;;;;5032011;28;20559;-69
2023/06/27 02:05:25;;;;;;;3.80;2.37;;;18.10;66.80;;;;;;5033395;28;20449;-69
2023/06/27 02:07:53;;;;;;;2.40;1.97;;;17.90;67.40;;;;;;5034121;28;20587;-70
2023/06/27 02:10:21;;;;;;;3.43;2.27;;;17.80;67.50;;;;;;5033688;28;20476;-70
2023/06/27 02:12:51;;;;;;;3.23;2.00;;;17.90;67.60;;;;;;5032648;28;20460;-70
2023/06/27 02:15:19;;;;;;;5.50;2.60;;;17.80;67.80;;;;;;5033992;28;20947;-70
2023/06/27 02:17:47;;;;;;;4.20;2.47;;;17.80;67.80;;;;;;5033627;28;20467;-70
2023/06/27 02:20:15;;;;;;;3.20;1.90;;;17.70;67.70;;;;;;5033885;28;20547;-71
2023/06/27 02:22:43;;;;;;;5.20;2.30;;;17.80;67.60;;;;;;5032570;28;20485;-69
2023/06/27 02:25:11;;;;;;;3.83;2.30;;;17.80;67.50;;;;;;5034423;28;21010;-69
2023/06/27 02:27:39;;;;;;;3.57;1.73;;;17.90;66.90;;;;;;5033827;28;20444;-69
2023/06/27 02:30:10;;;;;;;2.40;1.87;;;18.00;66.80;;;;;;5033465;28;20467;-71
2023/06/27 02:32:38;;;;;;;5.30;2.47;;;18.10;66.50;;;;;;5032868;28;20893;-69
2023/06/27 02:35:07;;;;;;;4.63;2.10;;;18.10;66.20;;;;;;5033475;28;20540;-69
2023/06/27 02:37:35;;;;;;;3.30;1.90;;;18.10;66.20;;;;;;5033532;28;20445;-69
2023/06/27 02:40:03;;;;;;;3.17;2.00;;;18.10;66.20;;;;;;5033076;28;20919;-70
2023/06/27 02:42:31;;;;;;;9.43;2.50;;;18.10;66.40;;;;;;5031943;28;20511;-69
2023/06/27 02:44:59;;;;;;;3.90;2.10;;;18.10;66.50;;;;;;5032817;28;20454;-69
2023/06/27 02:47:28;;;;;;;3.80;2.00;;;18.20;66.20;;;;;;5032614;28;20657;-70
2023/06/27 02:49:56;;;;;;;4.10;2.30;;;18.10;66.40;;;;;;5033165;28;20498;-69
2023/06/27 02:52:24;;;;;;;3.60;2.70;;;18.10;66.50;;;;;;5031816;28;20928;-70
2023/06/27 02:54:53;;;;;;;2.90;2.43;;;18.10;66.40;;;;;;5033535;28;20457;-70
2023/06/27 02:57:21;;;;;;;2.90;2.07;;;18.10;66.30;;;;;;5033586;28;20502;-69
2023/06/27 02:59:49;;;;;;;4.93;2.20;;;18.10;66.70;;;;;;5033144;28;20440;-70
2023/06/27 03:02:17;;;;;;;2.70;2.10;;;18.00;66.80;;;;;;5032643;28;20560;-69
2023/06/27 03:04:47;;;;;;;3.57;2.23;;;18.00;66.70;;;;;;5032347;28;20452;-69
2023/06/27 03:07:15;;;;;;;2.97;2.10;;;18.00;67.40;;;;;;5033056;28;20468;-69
2023/06/27 03:09:44;;;;;;;3.47;1.80;;;18.10;67.30;;;;;;5032632;28;20544;-69
2023/06/27 03:12:12;;;;;;;6.37;2.47;;;18.00;67.70;;;;;;5031198;28;20532;-69
2023/06/27 03:14:40;;;;;;;5.13;2.40;;;18.00;67.60;;;;;;5032228;28;20451;-70
2023/06/27 03:17:08;;;;;;;4.73;2.37;;;18.00;68.70;;;;;;5032645;28;20441;-69
2023/06/27 03:19:36;;;;;;;6.70;2.40;;;18.00;68.70;;;;;;5032984;28;20547;-69
2023/06/27 03:22:13;;;;;;;4.50;2.40;;;17.90;69.00;;;;;;5031940;28;21249;-70
2023/06/27 03:24:41;;;;;;;3.80;2.07;;;17.80;69.30;;;;;;5032256;28;20808;-70
2023/06/27 03:27:09;;;;;;;5.40;2.00;;;17.70;69.70;;;;;;5033009;28;20838;-70
2023/06/27 03:29:37;;;;;;;4.10;2.50;;;17.70;70.30;;;;;;5032969;28;20503;-69
2023/06/27 03:32:06;;;;;;;4.17;2.70;;;17.60;71.20;;;;;;5034296;28;20440;-70
2023/06/27 03:34:35;;;;;;;3.43;2.10;;;17.70;71.00;;;;;;5032895;28;20481;-70
2023/06/27 03:37:03;;;;;;;4.23;2.70;;;17.60;70.00;;;;;;5034106;28;20550;-69
2023/06/27 03:39:32;;;;;;;3.13;2.27;;;17.50;69.80;;;;;;5033467;28;20495;-70
2023/06/27 03:42:01;;;;;;;3.67;2.20;;;17.50;70.60;;;;;;5033327;28;21015;-70
2023/06/27 03:44:29;;;;;;;5.83;2.33;;;17.50;70.10;;;;;;5032639;28;20445;-69
2023/06/27 03:46:57;;;;;;;3.07;2.37;;;17.40;70.80;;;;;;5033856;28;21049;-70
2023/06/27 03:49:25;;;;;;;5.37;2.40;;;17.40;70.40;;;;;;5036757;28;20543;-70
2023/06/27 03:51:53;;;;;;;6.47;2.40;;;17.30;70.60;;;;;;5039066;28;21191;-69
2023/06/27 03:54:21;;;;;;;8.53;2.37;;;17.20;71.00;;;;;;5033182;28;20531;-70
2023/06/27 03:56:50;;;;;;;6.33;3.07;;;17.20;71.70;;;;;;5034186;28;20460;-69
2023/06/27 03:59:18;;;;;;;3.07;2.20;;;17.30;71.20;;;;;;5032282;28;20449;-70
2023/06/27 04:01:46;;;;;;;3.17;2.10;;;17.20;71.20;;;;;;5032112;28;20441;-70
2023/06/27 04:04:14;;;;;;;3.83;2.57;;;17.20;71.30;;;;;;5029982;28;20512;-70
2023/06/27 04:06:42;;;;;;;4.20;2.10;;;17.10;71.70;;;;;;5031516;28;20436;-70
2023/06/27 04:09:10;;;;;;;4.70;2.13;;;17.20;71.80;;;;;;5031459;28;20813;-70
2023/06/27 04:11:38;;;;;;;5.43;1.70;;;17.20;72.00;;;;;;5031093;28;20540;-69
2023/06/27 04:14:08;;;;;;;5.80;3.07;;;17.30;72.60;;;;;;5030270;28;20893;-68
2023/06/27 04:16:36;;;;;;;3.10;2.00;;;17.40;71.30;;;;;;5031056;28;20449;-69
2023/06/27 04:19:04;;;;;;;3.17;1.80;;;17.50;71.50;;;;;;5031048;28;20488;-68
2023/06/27 04:21:32;;;;;;;3.23;1.77;;;17.50;71.10;;;;;;5031424;28;20449;-68
2023/06/27 04:24:00;;;;;;;4.00;2.10;;;17.50;71.40;;;;;;5028603;28;20481;-69
2023/06/27 04:26:28;;;;;;;5.73;2.10;;;17.60;71.00;;;;;;5031297;28;20445;-68
2023/06/27 04:28:56;;;;;;;7.90;2.77;;;17.60;70.80;;;;;;5030690;28;20504;-67
2023/06/27 04:31:26;;;;;;;3.80;2.20;;;17.60;70.90;;;;;;5030827;28;20518;-66
2023/06/27 04:33:59;;;;;;;3.60;2.37;;;17.70;71.10;;;;;;5030357;28;20560;-68
2023/06/27 04:36:27;;;;;;;3.40;2.13;;;17.70;71.30;;;;;;5031547;28;20444;-67
2023/06/27 04:38:55;;;;;;;2.43;2.23;;;17.70;71.90;;;;;;5031479;28;20441;-69
2023/06/27 04:41:23;;;;;;;2.60;2.10;;;17.60;72.30;;;;;;5035273;28;20448;-68
2023/06/27 04:43:51;;;;;;;5.90;2.67;;;17.60;72.40;;;;;;5034632;28;20484;-69
2023/06/27 04:46:19;;;;;;;4.20;1.90;;;17.70;72.30;;;;;;5037429;28;20453;-69
2023/06/27 04:48:49;;;;;;;6.40;2.47;;;17.70;72.10;;;;;;5044819;28;20460;-68
2023/06/27 04:51:17;;;;;;;3.80;2.10;;;17.70;72.30;;;;;;5054016;28;20578;-71
2023/06/27 04:53:45;;;;;;;4.00;2.20;;;17.80;71.30;;;;;;5037755;28;20495;-70
2023/06/27 04:56:13;;;;;;;6.57;2.30;;;17.90;70.70;;;;;;5036724;28;20583;-71
2023/06/27 04:58:41;;;;;;;6.90;3.23;;;17.90;70.40;;;;;;5032722;28;20532;-70
2023/06/27 05:01:09;;;;;;;6.20;2.90;;;17.90;71.00;;;;;;5032679;28;20520;-70
2023/06/27 05:03:37;;;;;;;3.43;2.20;;;17.90;71.00;;;;;;5030094;28;20912;-70
2023/06/27 05:06:08;;;;;;;5.93;2.53;;;18.00;70.90;;;;;;5033582;28;20445;-70
2023/06/27 05:08:37;;;;;;;11.70;3.00;;;18.10;69.10;;;;;;5033702;28;20445;-67
2023/06/27 05:11:05;;;;;;;3.90;1.97;;;18.20;71.10;;;;;;5033522;28;20816;-68
2023/06/27 05:13:33;;;;;;;6.80;2.80;;;18.30;73.20;;;;;;5032357;28;20543;-68
2023/06/27 05:16:02;;;;;;;4.40;2.03;;;18.40;74.40;;;;;;5032213;28;20453;-69
2023/06/27 05:18:30;;;;;;;5.50;2.10;;;18.50;73.50;;;;;;5033895;28;20503;-69
2023/06/27 05:20:58;;;;;;;5.30;2.60;;;18.50;71.80;;;;;;5034552;28;20862;-70
2023/06/27 05:23:27;;;;;;;7.67;2.10;;;18.70;70.60;;;;;;5031147;28;20485;-69
2023/06/27 05:25:55;;;;;;;5.63;2.93;;;18.80;70.60;;;;;;5032198;28;21238;-69
2023/06/27 05:28:23;;;;;;;5.80;2.27;;;19.00;69.20;;;;;;5043650;28;20458;-71
2023/06/27 05:30:51;;;;;;;3.60;2.37;;;19.00;71.40;;;;;;5061671;28;20851;-69
2023/06/27 05:33:19;;;;;;;3.63;2.53;;;19.10;71.30;;;;;;5069644;28;20467;-69
2023/06/27 05:35:47;;;;;;;3.50;2.20;;;19.00;73.90;;;;;;5070686;28;20937;-68
2023/06/27 05:38:16;;;;;;;5.70;2.30;;;19.10;75.20;;;;;;5070376;28;20447;-69
2023/06/27 05:40:45;;;;;;;3.10;2.40;;;19.10;75.50;;;;;;5069584;28;20482;-68
2023/06/27 05:43:13;;;;;;;3.23;2.43;;;19.20;74.00;;;;;;5069265;28;20544;-68
2023/06/27 05:45:41;;;;;;;7.93;2.30;;;19.30;73.70;;;;;;5069911;28;20475;-69
2023/06/27 05:48:09;;;;;;;3.90;2.17;;;19.40;71.00;;;;;;5062370;28;20811;-68
2023/06/27 05:50:37;;;;;;;3.70;2.20;;;19.50;72.70;;;;;;5049937;28;20448;-67
2023/06/27 05:53:05;;;;;;;2.57;2.00;;;19.70;71.70;;;;;;5048663;28;20475;-67
2023/06/27 05:55:35;;;;;;;4.30;2.47;;;19.80;67.10;;;;;;5050130;28;20497;-69
2023/06/27 05:58:04;;;;;;;4.30;2.47;;;19.70;67.40;;;;;;5049473;28;20435;-69
2023/06/27 06:00:33;;;;;;;4.93;2.33;;;19.80;66.30;;;;;;5049441;28;20448;-69
2023/06/27 06:03:01;;;;;;;4.80;2.37;;;20.00;64.20;;;;;;5047315;28;20486;-69
2023/06/27 06:05:29;;;;;;;5.43;2.87;;;20.00;64.40;;;;;;5035490;28;20478;-69
2023/06/27 06:07:57;;;;;;;4.47;2.20;;;20.30;62.50;;;;;;5029519;28;21091;-69
2023/06/27 06:10:25;;;;;;;7.57;2.23;;;20.40;64.90;;;;;;5029417;28;20448;-70
2023/06/27 06:12:53;;;;;;;2.77;2.17;;;20.40;63.60;;;;;;5028301;28;20551;-69
2023/06/27 06:15:22;;;;;;;2.97;2.00;;;20.70;62.70;;;;;;5029365;28;20983;-70
2023/06/27 06:17:50;;;;;;;7.33;2.40;;;20.70;58.50;;;;;;5029278;28;20445;-69
2023/06/27 06:20:18;;;;;;;4.80;2.13;;;20.70;57.50;;;;;;5029505;28;20547;-69
2023/06/27 06:22:46;;;;;;;3.47;1.90;;;20.60;57.70;;;;;;5028387;28;20879;-68
2023/06/27 06:25:14;;;;;;;5.07;2.73;;;20.50;59.00;;;;;;5029327;28;20444;-69
2023/06/27 06:27:42;;;;;;;3.80;2.17;;;20.40;56.60;;;;;;5029613;28;20441;-68
2023/06/27 06:30:12;;;;;;;4.17;2.00;;;20.10;56.70;;;;;;5029423;28;20495;-68
2023/06/27 06:32:41;;;;;;;3.40;2.23;;;20.00;57.90;;;;;;5028657;28;20468;-68
2023/06/27 06:35:09;;;;;;;9.73;3.10;;;20.00;57.90;;;;;;5029931;28;20441;-68
2023/06/27 06:37:37;;;;;;;4.50;2.07;;;20.10;57.70;;;;;;5029773;28;20502;-69
2023/06/27 06:40:07;;;;;;;4.80;2.40;;;20.00;57.50;;;;;;5029423;28;20524;-69
2023/06/27 06:42:35;;;;;;;4.73;2.37;;;19.80;56.90;;;;;;5028018;28;20496;-70
2023/06/27 06:45:04;;;;;;;4.70;2.30;;;19.80;57.90;;;;;;5029135;28;20480;-67
2023/06/27 06:47:32;;;;;;;4.67;2.20;;;19.80;58.00;;;;;;5033497;28;20452;-67
2023/06/27 06:50:02;;;;;;;4.87;1.83;;;19.80;57.90;;;;;;5033634;28;20445;-68
2023/06/27 06:52:30;;;;;;;3.00;2.03;;;19.90;58.20;;;;;;5032126;28;20457;-68
2023/06/27 06:54:58;;;;;;;3.80;2.00;;;20.10;58.00;;;;;;5032661;28;20448;-69
2023/06/27 06:57:27;;;;;;;2.17;1.80;;;20.20;58.80;;;;;;5032959;28;20441;-68
2023/06/27 06:59:54;;;;;;;3.37;1.90;;;20.30;60.20;;;;;;5033093;28;20445;-68
2023/06/27 07:02:22;;;;;;;4.63;1.83;;;20.40;58.50;;;;;;5031948;28;20436;-69
2023/06/27 07:04:51;;;;;;;10.03;2.10;;;20.60;58.70;;;;;;5032463;28;20485;-68
2023/06/27 07:07:23;;;;;;;6.30;2.37;;;20.70;57.20;;;;;;5032655;28;20437;-68
2023/06/27 07:09:51;;;;;;;3.57;2.03;;;20.80;57.10;;;;;;5032360;28;20499;-68
2023/06/27 07:12:19;;;;;;;6.60;2.57;;;21.00;58.40;;;;;;5032103;28;20482;-68
2023/06/27 07:14:47;;;;;;;6.17;2.37;;;21.00;55.60;;;;;;5032448;28;20795;-68
2023/06/27 07:17:15;;;;;;;3.50;1.90;;;21.20;56.20;;;;;;5032560;28;20547;-69
2023/06/27 07:19:43;;;;;;;3.00;1.90;;;21.30;55.10;;;;;;5032228;28;20452;-68
2023/06/27 07:22:11;;;;;;;4.33;2.77;;;21.10;59.60;;;;;;5031746;28;20449;-68
2023/06/27 07:24:40;;;;;;;3.80;2.40;;;21.20;55.20;;;;;;5031166;28;20472;-67
2023/06/27 07:27:09;;;;;;;5.87;2.00;;;21.20;56.40;;;;;;5032426;28;20499;-68
2023/06/27 07:29:37;;;;;;;3.50;1.87;;;21.10;55.50;;;;;;5031955;28;20456;-68
2023/06/27 07:32:07;;;;;;;3.03;1.93;;;21.10;55.70;;;;;;5031698;28;20441;-67
2023/06/27 07:34:35;;;;;;;5.77;2.10;;;21.10;55.50;;;;;;5031335;28;20896;-68
2023/06/27 07:37:03;;;;;;;3.73;2.27;;;21.10;54.80;;;;;;5031928;28;20477;-68
2023/06/27 07:39:31;;;;;;;6.50;2.57;;;21.10;55.50;;;;;;5032272;28;20441;-67
2023/06/27 07:42:01;;;;;;;4.93;2.13;;;21.10;54.80;;;;;;5032266;28;20491;-68
2023/06/27 07:44:29;;;;;;;2.80;2.00;;;21.10;55.20;;;;;;5031273;28;20469;-68
2023/06/27 07:46:57;;;;;;;2.77;2.57;;;21.20;54.80;;;;;;5032131;28;20511;-67
2023/06/27 07:49:25;;;;;;;3.80;2.40;;;21.30;54.30;;;;;;5031938;28;20449;-67
2023/06/27 07:51:53;;;;;;;4.47;2.07;;;21.50;54.30;;;;;;5031947;28;20440;-67
2023/06/27 07:54:24;;;;;;;4.63;2.47;;;21.40;53.60;;;;;;5030585;28;20538;-68
2023/06/27 07:56:54;;;;;;;2.47;2.07;;;21.20;54.30;;;;;;5031338;28;21017;-68
2023/06/27 07:59:23;;;;;;;3.20;2.20;;;21.20;54.70;;;;;;5031669;28;20876;-69
2023/06/27 08:01:51;;;;;;;6.15;2.30;;;21.40;54.40;;;;;;5030876;28;20527;-67
2023/06/27 08:04:20;;;;;;;7.20;2.63;;;21.60;53.20;;;;;;5030157;28;20257;-67
2023/06/27 08:06:48;;;;;;;4.60;2.13;;;21.90;52.60;;;;;;5031865;28;20448;-67
2023/06/27 08:09:16;;;;;;;8.20;2.83;;;22.20;51.80;;;;;;5031478;28;20445;-68
2023/06/27 08:11:44;;;;;;;3.40;2.43;;;22.30;51.10;;;;;;5031422;28;20868;-68
2023/06/27 08:14:12;;;;;;;4.10;2.17;;;22.50;50.80;;;;;;5029896;28;20488;-68
2023/06/27 08:16:41;;;;;;;3.33;2.33;;;23.00;51.00;;;;;;5031266;28;20441;-67
2023/06/27 08:19:09;;;;;;;4.00;2.70;;;22.90;49.80;;;;;;5031107;28;20453;-68
2023/06/27 08:21:37;;;;;;;2.97;1.93;;;22.90;50.30;;;;;;5031197;28;20441;-68
2023/06/27 08:24:06;;;;;;;3.83;2.40;;;22.90;49.70;;;;;;5029738;28;20464;-68
2023/06/27 08:26:34;;;;;;;3.07;2.30;;;22.80;50.10;;;;;;5031279;28;20445;-68
2023/06/27 08:29:02;;;;;;;4.70;2.33;;;22.80;50.10;;;;;;5031051;28;20491;-67
2023/06/27 08:31:30;;;;;;;5.53;2.30;;;22.70;49.70;;;;;;5031320;28;20445;-67
2023/06/27 08:33:59;;;;;;;4.00;2.43;;;22.90;50.20;;;;;;5030558;28;20461;-68
2023/06/27 08:36:27;;;;;;;5.20;2.47;;;23.10;51.20;;;;;;5031280;28;20536;-67
2023/06/27 08:38:55;;;;;;;4.90;2.40;;;23.20;48.60;;;;;;5030863;28;20923;-67
2023/06/27 08:41:23;;;;;;;3.67;1.93;;;23.00;49.30;;;;;;5030670;28;20491;-67
2023/06/27 08:43:51;;;;;;;3.53;2.40;;;23.20;50.50;;;;;;5029423;28;20465;-67
2023/06/27 08:46:24;;;;;;;3.13;2.00;;;23.70;49.60;;;;;;5030549;28;20507;-68
2023/06/27 08:48:53;;;;;;;3.57;2.33;;;23.80;47.80;;;;;;5030782;28;20464;-67
2023/06/27 08:51:25;;;;;;;6.83;2.30;;;23.60;47.50;;;;;;5030581;28;21124;-67
2023/06/27 08:53:58;;;;;;;2.67;2.43;;;23.50;48.60;;;;;;5029282;28;20511;-68
2023/06/27 08:56:28;;;;;;;2.87;1.97;;;23.40;48.80;;;;;;5030881;28;20535;-67
2023/06/27 08:59:02;;;;;;;3.27;2.53;;;23.80;47.20;;;;;;5030357;28;21025;-68
2023/06/27 09:01:32;;;;;;;6.30;2.50;;;24.20;47.10;;;;;;5030510;28;20469;-68
2023/06/27 09:04:03;;;;;;;5.97;2.70;;;24.20;46.10;;;;;;5029281;28;20483;-68
2023/06/27 09:06:32;;;;;;;8.33;2.23;;;23.70;47.00;;;;;;5030352;28;20477;-68
2023/06/27 09:09:00;;;;;;;4.90;2.40;;;23.30;47.60;;;;;;5030071;28;20476;-68
2023/06/27 09:11:29;;;;;;;6.80;3.00;;;23.20;48.20;;;;;;5030670;28;20444;-68
2023/06/27 09:13:57;;;;;;;4.17;2.30;;;23.20;49.60;;;;;;5029163;28;20465;-69
2023/06/27 09:16:25;;;;;;;4.50;2.80;;;23.30;48.70;;;;;;5030683;28;20441;-68
2023/06/27 09:18:53;;;;;;;4.93;2.60;;;23.70;48.00;;;;;;5030430;28;20451;-68
2023/06/27 09:21:23;;;;;;;4.10;2.10;;;24.20;47.50;;;;;;5030783;28;20432;-69
2023/06/27 09:23:55;;;;;;;5.80;2.40;;;24.50;47.20;;;;;;5029283;28;20465;-69
2023/06/27 09:26:27;;;;;;;4.80;2.30;;;24.80;45.30;;;;;;5030077;28;20477;-73
2023/06/27 09:28:55;;;;;;;5.93;2.30;;;25.00;46.90;;;;;;5028866;28;20456;-71
2023/06/27 09:31:23;;;;;;;3.63;2.60;;;25.40;45.30;;;;;;5029207;28;20851;-70
2023/06/27 09:33:51;;;;;;;2.87;2.50;;;25.70;45.10;;;;;;5028333;28;20467;-69
2023/06/27 09:36:34;;;;;;;5.87;2.87;;;25.50;43.70;;;;;;5029523;28;20463;-69
2023/06/27 09:39:08;;;;;;;3.50;2.20;;;25.10;44.30;;;;;;5029745;28;20523;-69
2023/06/27 09:41:49;;;;;;;9.40;2.83;;;24.80;47.30;;;;;;5032745;28;20943;-69
2023/06/27 09:44:19;;;;;;;5.07;2.83;;;24.50;45.00;;;;;;5031443;28;20534;-70
2023/06/27 09:46:48;;;;;;;4.20;2.57;;;24.10;46.00;;;;;;5032143;28;20481;-70
2023/06/27 09:49:18;;;;;;;2.77;2.20;;;24.20;45.00;;;;;;5033090;28;20449;-70
2023/06/27 09:51:46;;;;;;;2.60;2.23;;;24.40;44.90;;;;;;5032726;28;20512;-69
2023/06/27 09:54:19;;;;;;;3.03;2.50;;;24.40;44.50;;;;;;5030846;28;21079;-71
2023/06/27 09:56:50;;;;;;;5.23;2.30;;;24.80;45.00;;;;;;5048026;28;20413;-71
2023/06/27 09:59:20;;;;;;;4.87;2.50;;;25.00;42.90;;;;;;5056065;28;20454;-71
2023/06/27 10:01:52;;;;;;;4.73;2.50;;;25.00;44.00;;;;;;5050336;28;20448;-71
2023/06/27 10:04:21;;;;;;;4.40;2.37;;;25.30;44.30;;;;;;5038323;28;20465;-70
2023/06/27 10:06:52;;;;;;;3.63;2.30;;;25.40;43.10;;;;;;5036772;28;20465;-71
2023/06/27 10:09:22;;;;;;;3.83;2.40;;;25.70;43.70;;;;;;5034947;28;20504;-71
2023/06/27 10:11:50;;;;;;;13.67;3.43;;;25.90;43.30;;;;;;5035014;28;20469;-72
2023/06/27 10:14:20;;;;;;;3.90;2.10;;;25.30;42.90;;;;;;5032993;28;20461;-72
2023/06/27 10:16:50;;;;;;;3.63;2.23;;;25.00;42.60;;;;;;5034097;28;20441;-71
2023/06/27 10:19:18;;;;;;;2.70;2.17;;;25.00;42.90;;;;;;5030885;28;20499;-71
2023/06/27 10:21:47;;;;;;;4.53;2.73;;;24.80;44.00;;;;;;5033536;28;20455;-72
2023/06/27 10:24:16;;;;;;;4.13;2.43;;;24.60;44.00;;;;;;5032910;28;20468;-71
2023/06/27 10:26:52;;;;;;;8.60;2.10;;;24.40;43.90;;;;;;5033945;28;20567;-71
2023/06/27 10:29:31;;;;;;;3.30;2.43;;;24.40;44.10;;;;;;5033605;28;20464;-71
2023/06/27 10:32:02;;;;;;;5.13;2.73;;;24.60;44.50;;;;;;5033622;28;20545;-71
2023/06/27 10:34:39;;;;;;;3.27;2.97;;;24.60;43.90;;;;;;5032824;28;20488;-71
2023/06/27 10:37:10;;;;;;;6.20;2.17;;;24.80;43.30;;;;;;5033726;28;20464;-71
2023/06/27 10:39:41;;;;;;;4.20;2.30;;;24.90;43.70;;;;;;5033650;28;20437;-71
2023/06/27 10:42:28;;;;;;;4.00;2.10;;;25.40;42.30;;;;;;5032872;28;20445;-71
2023/06/27 10:45:05;;;;;;;6.00;2.50;;;25.70;41.60;;;;;;5033384;28;20480;-71
2023/06/27 10:47:35;;;;;;;5.70;2.33;;;25.70;41.40;;;;;;5033438;28;20531;-71
2023/06/27 10:50:09;;;;;;;3.53;2.53;;;25.70;40.70;;;;;;5033216;28;20448;-71
2023/06/27 10:52:38;;;;;;;2.87;2.20;;;25.50;41.30;;;;;;5031865;28;20457;-71
2023/06/27 10:55:23;;;;;;;3.20;2.30;;;25.60;41.20;;;;;;5033610;28;20492;-71
2023/06/27 10:58:02;;;;;;;4.40;2.37;;;25.60;40.80;;;;;;5033041;28;20439;-71
2023/06/27 11:00:33;;;;;;;4.10;2.13;;;26.00;41.90;;;;;;5033184;28;20432;-71
2023/06/27 11:03:04;;;;;;;4.10;2.43;;;26.20;41.30;;;;;;5031484;28;20540;-71
2023/06/27 11:05:58;;;;;;;3.53;2.50;;;26.00;40.60;;;;;;5033186;28;20437;-71
2023/06/27 11:08:29;;;;;;;4.27;2.53;;;25.60;40.90;;;;;;5033239;28;20822;-71
2023/06/27 11:11:05;;;;;;;2.40;2.17;;;25.80;41.40;;;;;;5033089;28;20432;-71
2023/06/27 11:13:40;;;;;;;3.60;2.30;;;26.10;40.30;;;;;;5031205;28;20543;-71
2023/06/27 11:16:08;;;;;;;9.73;2.93;;;26.30;39.60;;;;;;5032792;28;20936;-71
2023/06/27 11:18:37;;;;;;;3.23;2.47;;;26.00;40.70;;;;;;5032425;28;20961;-70
2023/06/27 11:21:05;;;;;;;4.00;2.57;;;25.70;41.20;;;;;;5032581;28;20488;-72
2023/06/27 11:23:34;;;;;;;13.10;3.63;;;25.40;40.40;;;;;;5031092;28;20551;-70
2023/06/27 11:26:02;;;;;;;4.40;2.57;;;25.20;41.70;;;;;;5032230;28;20472;-70
2023/06/27 11:28:30;;;;;;;3.10;2.20;;;25.50;40.90;;;;;;5032410;28;20524;-71
2023/06/27 11:31:01;;;;;;;3.50;2.17;;;25.70;41.70;;;;;;5032572;28;20437;-71
2023/06/27 11:33:29;;;;;;;5.20;3.03;;;25.70;41.30;;;;;;5030531;28;20468;-70
2023/06/27 11:35:59;;;;;;;2.80;1.87;;;25.60;41.30;;;;;;5032502;28;20512;-71
2023/06/27 11:38:28;;;;;;;4.10;2.43;;;25.90;41.50;;;;;;5032063;28;20473;-71
2023/06/27 11:40:56;;;;;;;5.13;3.80;;;26.00;40.10;;;;;;5032160;28;20476;-71
2023/06/27 11:43:25;;;;;;;5.33;2.37;;;26.10;40.60;;;;;;5033373;28;20456;-71
2023/06/27 11:45:55;;;;;;;2.47;1.90;;;26.40;40.20;;;;;;5051975;28;20449;-68
2023/06/27 11:48:24;;;;;;;4.80;2.40;;;26.50;40.10;;;;;;5052204;28;20862;-71
2023/06/27 11:51:05;;;;;;;3.20;2.57;;;27.10;39.20;;;;;;5051903;28;20509;-70
2023/06/27 11:53:34;;;;;;;4.10;2.57;;;27.70;38.80;;;;;;5050812;28;20997;-70
2023/06/27 11:56:03;;;;;;;4.63;2.50;;;28.00;37.30;;;;;;5048595;28;20463;-71
2023/06/27 11:58:50;;;;;;;3.17;2.20;;;28.00;36.90;;;;;;5037468;28;21261;-71
2023/06/27 12:01:19;;;;;;;3.40;2.10;;;26.80;37.80;;;;;;5030303;28;20523;-70
2023/06/27 12:03:50;;;;;;;2.70;2.27;;;26.40;38.60;;;;;;5028512;28;20468;-71
2023/06/27 12:06:25;;;;;;;4.60;2.57;;;27.00;38.40;;;;;;5031012;28;20512;-71
2023/06/27 12:08:54;;;;;;;2.83;2.00;;;27.30;38.80;;;;;;5030316;28;20441;-71
2023/06/27 12:11:34;;;;;;;3.93;2.67;;;27.70;37.30;;;;;;5031235;28;20456;-71
2023/06/27 12:14:03;;;;;;;4.27;2.40;;;27.40;37.10;;;;;;5030606;28;20547;-71
2023/06/27 12:16:33;;;;;;;2.73;2.23;;;27.20;37.90;;;;;;5031827;28;20449;-71
2023/06/27 12:19:04;;;;;;;4.70;2.73;;;27.50;38.10;;;;;;5031769;28;20445;-70
2023/06/27 12:21:33;;;;;;;2.87;2.20;;;26.80;37.70;;;;;;5032291;28;20532;-71
2023/06/27 12:24:01;;;;;;;6.40;2.30;;;26.50;38.60;;;;;;5031080;28;20476;-71
2023/06/27 12:26:29;;;;;;;4.03;2.17;;;26.30;38.90;;;;;;5030905;28;21031;-71
2023/06/27 12:28:58;;;;;;;6.57;2.30;;;26.60;38.80;;;;;;5031516;28;20507;-71
2023/06/27 12:31:27;;;;;;;4.53;2.53;;;27.40;39.20;;;;;;5031410;28;20433;-71
2023/06/27 12:33:55;;;;;;;3.37;2.83;;;27.60;37.80;;;;;;5030244;28;20477;-71
2023/06/27 12:36:25;;;;;;;2.43;2.23;;;27.70;36.60;;;;;;5031350;28;20449;-71
2023/06/27 12:38:53;;;;;;;5.80;2.77;;;27.80;36.50;;;;;;5031042;28;20548;-71
2023/06/27 12:41:22;;;;;;;4.30;2.40;;;28.10;36.00;;;;;;5030765;28;20489;-71
2023/06/27 12:43:51;;;;;;;2.77;2.17;;;28.00;36.10;;;;;;5028776;28;20487;-71
2023/06/27 12:46:19;;;;;;;3.50;2.50;;;28.20;35.90;;;;;;5030530;28;20502;-71
2023/06/27 12:48:47;;;;;;;5.40;2.70;;;28.20;36.90;;;;;;5030817;28;20552;-71
2023/06/27 12:51:16;;;;;;;3.83;2.67;;;28.30;36.90;;;;;;5035193;28;20468;-71
2023/06/27 12:53:49;;;;;;;3.50;3.20;;;28.50;36.30;;;;;;5040258;28;21311;-71
2023/06/27 12:56:17;;;;;;;4.10;3.00;;;28.20;36.50;;;;;;5030976;28;20491;-71